sensor_id;sensor_type;location;lat;lon;timestamp;P1;P2;P0
56360;PMS7003;42611;51.132;13.588;2024-01-30T00:04:01;53.0;42.9;
56360;PMS7003;42611;51.132;13.588;2024-01-30T00:09:01;54.9;43.8;
56360;PMS7003;42611;51.132;13.588;2024-01-30T00:19:11;53.7;43.4;
56360;PMS7003;42611;51.132;13.588;2024-01-30T00:24:01;54.6;44.0;
56360;PMS7003;42611;51.132;13.588;2024-01-30T00:29:01;53.8;44.4;
56360;PMS7003;42611;51.132;13.588;2024-01-30T00:34:01;55.6;45.5;
56360;PMS7003;42611;51.132;13.588;2024-01-30T00:39:01;56.2;45.8;
56360;PMS7003;42611;51.132;13.588;2024-01-30T00:44:01;58.0;47.1;
56360;PMS7003;42611;51.132;13.588;2024-01-30T00:54:01;58.2;46.4;
56360;PMS7003;42611;51.132;13.588;2024-01-30T00:59:01;58.0;46.2;
56360;PMS7003;42611;51.132;13.588;2024-01-30T01:04:01;57.8;46.0;
56360;PMS7003;42611;51.132;13.588;2024-01-30T01:09:05;58.1;45.9;
56360;PMS7003;42611;51.132;13.588;2024-01-30T01:14:01;58.9;46.2;
56360;PMS7003;42611;51.132;13.588;2024-01-30T01:19:02;58.7;46.8;
56360;PMS7003;42611;51.132;13.588;2024-01-30T01:24:01;58.8;46.6;
56360;PMS7003;42611;51.132;13.588;2024-01-30T01:29:01;58.7;46.8;
56360;PMS7003;42611;51.132;13.588;2024-01-30T01:34:01;57.6;45.9;
56360;PMS7003;42611;51.132;13.588;2024-01-30T01:39:01;56.0;44.4;
56360;PMS7003;42611;51.132;13.588;2024-01-30T01:44:01;56.2;43.5;
56360;PMS7003;42611;51.132;13.588;2024-01-30T01:49:02;55.2;43.4;
56360;PMS7003;42611;51.132;13.588;2024-01-30T01:54:02;55.7;43.4;
56360;PMS7003;42611;51.132;13.588;2024-01-30T01:59:04;56.1;43.7;
56360;PMS7003;42611;51.132;13.588;2024-01-30T02:04:01;56.8;44.2;
56360;PMS7003;42611;51.132;13.588;2024-01-30T02:09:01;57.1;44.9;
56360;PMS7003;42611;51.132;13.588;2024-01-30T02:14:02;56.4;44.8;
56360;PMS7003;42611;51.132;13.588;2024-01-30T02:19:02;55.7;44.1;
56360;PMS7003;42611;51.132;13.588;2024-01-30T02:24:01;53.8;42.6;
56360;PMS7003;42611;51.132;13.588;2024-01-30T02:29:01;53.5;42.6;
56360;PMS7003;42611;51.132;13.588;2024-01-30T02:34:01;53.1;43.0;
56360;PMS7003;42611;51.132;13.588;2024-01-30T02:39:01;53.3;42.9;
56360;PMS7003;42611;51.132;13.588;2024-01-30T02:45:02;50.9;41.4;
56360;PMS7003;42611;51.132;13.588;2024-01-30T02:50:02;51.9;42.5;
56360;PMS7003;42611;51.132;13.588;2024-01-30T02:55:01;51.6;42.5;
56360;PMS7003;42611;51.132;13.588;2024-01-30T03:00:02;50.7;41.8;
56360;PMS7003;42611;51.132;13.588;2024-01-30T03:05:01;47.0;39.4;
56360;PMS7003;42611;51.132;13.588;2024-01-30T03:10:01;48.4;40.0;
56360;PMS7003;42611;51.132;13.588;2024-01-30T03:15:02;48.0;39.9;
56360;PMS7003;42611;51.132;13.588;2024-01-30T03:20:02;48.2;39.7;
56360;PMS7003;42611;51.132;13.588;2024-01-30T03:25:01;49.4;40.0;
56360;PMS7003;42611;51.132;13.588;2024-01-30T03:30:02;53.0;41.7;
56360;PMS7003;42611;51.132;13.588;2024-01-30T03:35:02;52.7;42.2;
56360;PMS7003;42611;51.132;13.588;2024-01-30T03:40:02;53.5;42.1;
56360;PMS7003;42611;51.132;13.588;2024-01-30T03:45:02;52.7;41.4;
56360;PMS7003;42611;51.132;13.588;2024-01-30T03:50:01;51.5;40.8;
56360;PMS7003;42611;51.132;13.588;2024-01-30T03:55:01;52.0;41.2;
56360;PMS7003;42611;51.132;13.588;2024-01-30T04:00:05;53.1;42.0;
56360;PMS7003;42611;51.132;13.588;2024-01-30T04:05:01;53.2;42.2;
56360;PMS7003;42611;51.132;13.588;2024-01-30T04:10:01;54.4;42.6;
56360;PMS7003;42611;51.132;13.588;2024-01-30T04:15:02;55.1;42.6;
56360;PMS7003;42611;51.132;13.588;2024-01-30T04:20:02;55.8;43.5;
56360;PMS7003;42611;51.132;13.588;2024-01-30T04:25:01;54.8;42.7;
56360;PMS7003;42611;51.132;13.588;2024-01-30T04:30:02;55.2;42.5;
56360;PMS7003;42611;51.132;13.588;2024-01-30T04:35:02;55.0;43.3;
56360;PMS7003;42611;51.132;13.588;2024-01-30T04:40:01;54.5;43.5;
56360;PMS7003;42611;51.132;13.588;2024-01-30T04:45:01;54.7;43.6;
56360;PMS7003;42611;51.132;13.588;2024-01-30T04:50:02;52.6;42.6;
56360;PMS7003;42611;51.132;13.588;2024-01-30T04:55:01;53.5;43.1;
56360;PMS7003;42611;51.132;13.588;2024-01-30T05:00:02;53.4;43.1;
56360;PMS7003;42611;51.132;13.588;2024-01-30T05:05:01;53.1;42.8;
56360;PMS7003;42611;51.132;13.588;2024-01-30T05:10:07;50.7;41.2;
56360;PMS7003;42611;51.132;13.588;2024-01-30T05:15:02;53.4;42.5;
56360;PMS7003;42611;51.132;13.588;2024-01-30T05:20:02;52.9;42.8;
56360;PMS7003;42611;51.132;13.588;2024-01-30T05:25:07;52.2;42.4;
56360;PMS7003;42611;51.132;13.588;2024-01-30T05:30:02;51.4;41.9;
56360;PMS7003;42611;51.132;13.588;2024-01-30T05:35:01;51.2;41.8;
56360;PMS7003;42611;51.132;13.588;2024-01-30T05:40:01;51.6;42.0;
56360;PMS7003;42611;51.132;13.588;2024-01-30T05:45:02;47.0;38.7;
56360;PMS7003;42611;51.132;13.588;2024-01-30T05:55:01;49.1;40.4;
56360;PMS7003;42611;51.132;13.588;2024-01-30T06:00:02;50.7;41.6;
56360;PMS7003;42611;51.132;13.588;2024-01-30T06:05:01;50.8;41.8;
56360;PMS7003;42611;51.132;13.588;2024-01-30T06:10:01;55.5;44.8;
56360;PMS7003;42611;51.132;13.588;2024-01-30T06:15:02;56.4;45.5;
56360;PMS7003;42611;51.132;13.588;2024-01-30T06:25:01;56.0;44.3;
56360;PMS7003;42611;51.132;13.588;2024-01-30T06:30:02;56.0;44.8;
56360;PMS7003;42611;51.132;13.588;2024-01-30T06:35:01;54.4;44.2;
56360;PMS7003;42611;51.132;13.588;2024-01-30T06:40:01;54.5;44.5;
56360;PMS7003;42611;51.132;13.588;2024-01-30T06:45:02;52.7;43.1;
56360;PMS7003;42611;51.132;13.588;2024-01-30T06:50:01;53.4;43.9;
56360;PMS7003;42611;51.132;13.588;2024-01-30T06:55:01;53.0;43.7;
56360;PMS7003;42611;51.132;13.588;2024-01-30T07:00:02;53.4;43.6;
56360;PMS7003;42611;51.132;13.588;2024-01-30T07:05:02;52.9;43.0;
56360;PMS7003;42611;51.132;13.588;2024-01-30T07:15:02;51.4;42.6;
56360;PMS7003;42611;51.132;13.588;2024-01-30T07:20:02;50.0;41.4;
56360;PMS7003;42611;51.132;13.588;2024-01-30T07:25:01;50.6;41.9;
56360;PMS7003;42611;51.132;13.588;2024-01-30T07:30:02;50.2;40.8;
56360;PMS7003;42611;51.132;13.588;2024-01-30T07:35:10;51.6;41.5;
56360;PMS7003;42611;51.132;13.588;2024-01-30T07:40:02;50.6;40.5;
56360;PMS7003;42611;51.132;13.588;2024-01-30T07:45:02;52.4;41.4;
56360;PMS7003;42611;51.132;13.588;2024-01-30T07:50:01;52.1;41.4;
56360;PMS7003;42611;51.132;13.588;2024-01-30T07:55:02;51.2;41.6;
56360;PMS7003;42611;51.132;13.588;2024-01-30T08:00:02;47.2;39.3;
56360;PMS7003;42611;51.132;13.588;2024-01-30T08:05:02;47.8;39.4;
56360;PMS7003;42611;51.132;13.588;2024-01-30T08:10:02;46.4;38.7;
56360;PMS7003;42611;51.132;13.588;2024-01-30T08:15:02;46.2;38.6;
56360;PMS7003;42611;51.132;13.588;2024-01-30T08:20:02;46.4;39.1;
56360;PMS7003;42611;51.132;13.588;2024-01-30T08:25:01;46.6;39.3;
56360;PMS7003;42611;51.132;13.588;2024-01-30T08:30:05;48.4;40.6;
56360;PMS7003;42611;51.132;13.588;2024-01-30T08:35:01;48.2;40.4;
56360;PMS7003;42611;51.132;13.588;2024-01-30T08:40:02;45.3;38.6;
56360;PMS7003;42611;51.132;13.588;2024-01-30T08:45:02;44.8;38.1;
56360;PMS7003;42611;51.132;13.588;2024-01-30T08:50:02;45.2;37.8;
56360;PMS7003;42611;51.132;13.588;2024-01-30T08:55:06;43.9;37.0;
56360;PMS7003;42611;51.132;13.588;2024-01-30T09:00:02;44.2;37.5;
56360;PMS7003;42611;51.132;13.588;2024-01-30T09:05:02;47.4;39.0;
56360;PMS7003;42611;51.132;13.588;2024-01-30T09:10:01;47.3;38.6;
56360;PMS7003;42611;51.132;13.588;2024-01-30T09:15:02;48.3;39.6;
56360;PMS7003;42611;51.132;13.588;2024-01-30T09:20:01;47.4;39.3;
56360;PMS7003;42611;51.132;13.588;2024-01-30T09:25:01;46.6;38.4;
56360;PMS7003;42611;51.132;13.588;2024-01-30T09:30:02;46.1;37.9;
56360;PMS7003;42611;51.132;13.588;2024-01-30T09:35:01;46.8;38.2;
56360;PMS7003;42611;51.132;13.588;2024-01-30T09:40:01;47.3;38.3;
56360;PMS7003;42611;51.132;13.588;2024-01-30T09:45:03;46.4;37.9;
56360;PMS7003;42611;51.132;13.588;2024-01-30T09:50:01;46.6;38.0;
56360;PMS7003;42611;51.132;13.588;2024-01-30T09:55:01;46.1;37.7;
56360;PMS7003;42611;51.132;13.588;2024-01-30T10:00:03;45.4;37.6;
56360;PMS7003;42611;51.132;13.588;2024-01-30T10:05:02;44.5;37.0;
56360;PMS7003;42611;51.132;13.588;2024-01-30T10:10:01;44.9;37.0;
56360;PMS7003;42611;51.132;13.588;2024-01-30T10:15:02;43.4;36.5;
56360;PMS7003;42611;51.132;13.588;2024-01-30T10:20:04;42.6;36.1;
56360;PMS7003;42611;51.132;13.588;2024-01-30T10:30:02;42.5;35.4;
56360;PMS7003;42611;51.132;13.588;2024-01-30T10:35:02;43.3;35.9;
56360;PMS7003;42611;51.132;13.588;2024-01-30T10:40:02;42.8;35.6;
56360;PMS7003;42611;51.132;13.588;2024-01-30T10:45:08;43.0;35.8;
56360;PMS7003;42611;51.132;13.588;2024-01-30T10:50:02;43.2;36.0;
56360;PMS7003;42611;51.132;13.588;2024-01-30T10:55:06;42.4;35.8;
56360;PMS7003;42611;51.132;13.588;2024-01-30T11:00:06;42.3;34.6;
56360;PMS7003;42611;51.132;13.588;2024-01-30T11:05:04;41.1;33.7;
56360;PMS7003;42611;51.132;13.588;2024-01-30T11:10:02;39.6;33.0;
56360;PMS7003;42611;51.132;13.588;2024-01-30T11:15:04;38.5;32.4;
56360;PMS7003;42611;51.132;13.588;2024-01-30T11:20:01;38.4;32.3;
56360;PMS7003;42611;51.132;13.588;2024-01-30T11:25:02;38.2;32.2;
56360;PMS7003;42611;51.132;13.588;2024-01-30T11:30:03;39.3;33.0;
56360;PMS7003;42611;51.132;13.588;2024-01-30T11:35:03;40.2;33.0;
56360;PMS7003;42611;51.132;13.588;2024-01-30T11:40:03;40.8;33.4;
56360;PMS7003;42611;51.132;13.588;2024-01-30T11:45:02;40.7;33.3;
56360;PMS7003;42611;51.132;13.588;2024-01-30T11:50:03;39.0;33.4;
56360;PMS7003;42611;51.132;13.588;2024-01-30T11:55:01;39.5;33.7;
56360;PMS7003;42611;51.132;13.588;2024-01-30T12:00:03;38.5;33.7;
56360;PMS7003;42611;51.132;13.588;2024-01-30T12:10:01;39.0;34.2;
56360;PMS7003;42611;51.132;13.588;2024-01-30T12:15:02;40.6;34.8;
56360;PMS7003;42611;51.132;13.588;2024-01-30T12:20:03;41.2;34.6;
56360;PMS7003;42611;51.132;13.588;2024-01-30T12:25:01;41.0;34.1;
56360;PMS7003;42611;51.132;13.588;2024-01-30T12:30:06;40.2;33.6;
56360;PMS7003;42611;51.132;13.588;2024-01-30T12:35:03;40.5;33.6;
56360;PMS7003;42611;51.132;13.588;2024-01-30T12:40:07;40.2;33.9;
56360;PMS7003;42611;51.132;13.588;2024-01-30T12:45:03;39.9;34.3;
56360;PMS7003;42611;51.132;13.588;2024-01-30T12:50:01;42.4;36.0;
56360;PMS7003;42611;51.132;13.588;2024-01-30T12:55:01;46.7;38.6;
56360;PMS7003;42611;51.132;13.588;2024-01-30T13:00:02;47.8;39.1;
56360;PMS7003;42611;51.132;13.588;2024-01-30T13:05:02;48.8;39.3;
56360;PMS7003;42611;51.132;13.588;2024-01-30T13:10:02;49.4;39.7;
56360;PMS7003;42611;51.132;13.588;2024-01-30T13:15:02;49.6;39.3;
56360;PMS7003;42611;51.132;13.588;2024-01-30T13:20:13;47.0;37.8;
56360;PMS7003;42611;51.132;13.588;2024-01-30T13:25:01;46.4;37.6;
56360;PMS7003;42611;51.132;13.588;2024-01-30T13:30:02;45.7;37.3;
56360;PMS7003;42611;51.132;13.588;2024-01-30T13:35:02;46.4;37.2;
56360;PMS7003;42611;51.132;13.588;2024-01-30T13:40:10;46.1;37.8;
56360;PMS7003;42611;51.132;13.588;2024-01-30T13:45:02;44.0;36.5;
56360;PMS7003;42611;51.132;13.588;2024-01-30T13:50:01;44.2;36.5;
56360;PMS7003;42611;51.132;13.588;2024-01-30T13:55:01;45.0;37.0;
56360;PMS7003;42611;51.132;13.588;2024-01-30T14:00:03;44.4;37.3;
56360;PMS7003;42611;51.132;13.588;2024-01-30T14:05:02;45.1;37.3;
56360;PMS7003;42611;51.132;13.588;2024-01-30T14:10:01;47.3;38.1;
56360;PMS7003;42611;51.132;13.588;2024-01-30T14:15:30;48.3;39.0;
56360;PMS7003;42611;51.132;13.588;2024-01-30T14:20:02;48.0;38.6;
56360;PMS7003;42611;51.132;13.588;2024-01-30T14:25:01;48.5;38.4;
56360;PMS7003;42611;51.132;13.588;2024-01-30T14:30:03;47.8;38.2;
56360;PMS7003;42611;51.132;13.588;2024-01-30T14:35:01;48.9;39.3;
56360;PMS7003;42611;51.132;13.588;2024-01-30T14:40:01;48.4;39.0;
56360;PMS7003;42611;51.132;13.588;2024-01-30T14:45:04;49.7;39.9;
56360;PMS7003;42611;51.132;13.588;2024-01-30T14:50:01;50.8;39.8;
56360;PMS7003;42611;51.132;13.588;2024-01-30T14:55:01;51.3;39.8;
56360;PMS7003;42611;51.132;13.588;2024-01-30T15:00:02;51.3;39.7;
56360;PMS7003;42611;51.132;13.588;2024-01-30T15:05:02;51.7;40.2;
56360;PMS7003;42611;51.132;13.588;2024-01-30T15:10:03;51.5;40.2;
56360;PMS7003;42611;51.132;13.588;2024-01-30T15:15:03;51.5;41.1;
56360;PMS7003;42611;51.132;13.588;2024-01-30T15:20:02;51.7;41.3;
56360;PMS7003;42611;51.132;13.588;2024-01-30T15:25:02;51.2;41.3;
56360;PMS7003;42611;51.132;13.588;2024-01-30T15:30:02;50.8;41.6;
56360;PMS7003;42611;51.132;13.588;2024-01-30T15:35:03;51.7;42.0;
56360;PMS7003;42611;51.132;13.588;2024-01-30T15:40:03;51.1;41.7;
56360;PMS7003;42611;51.132;13.588;2024-01-30T15:45:03;51.0;42.0;
56360;PMS7003;42611;51.132;13.588;2024-01-30T15:50:04;51.7;42.2;
56360;PMS7003;42611;51.132;13.588;2024-01-30T15:55:02;52.3;42.4;
56360;PMS7003;42611;51.132;13.588;2024-01-30T16:00:02;51.6;42.2;
56360;PMS7003;42611;51.132;13.588;2024-01-30T16:05:01;52.1;42.7;
56360;PMS7003;42611;51.132;13.588;2024-01-30T16:10:01;52.2;42.9;
56360;PMS7003;42611;51.132;13.588;2024-01-30T16:15:02;52.6;43.1;
56360;PMS7003;42611;51.132;13.588;2024-01-30T16:20:02;53.6;42.8;
56360;PMS7003;42611;51.132;13.588;2024-01-30T16:25:02;52.5;40.8;
56360;PMS7003;42611;51.132;13.588;2024-01-30T16:30:03;53.9;41.3;
56360;PMS7003;42611;51.132;13.588;2024-01-30T16:35:02;55.4;41.3;
56360;PMS7003;42611;51.132;13.588;2024-01-30T16:40:02;56.0;41.4;
56360;PMS7003;42611;51.132;13.588;2024-01-30T16:45:02;55.6;42.0;
56360;PMS7003;42611;51.132;13.588;2024-01-30T16:50:01;58.2;45.0;
56360;PMS7003;42611;51.132;13.588;2024-01-30T16:55:02;57.2;44.7;
56360;PMS7003;42611;51.132;13.588;2024-01-30T17:00:02;57.7;45.0;
56360;PMS7003;42611;51.132;13.588;2024-01-30T17:05:28;56.0;44.4;
56360;PMS7003;42611;51.132;13.588;2024-01-30T17:10:01;52.6;42.2;
56360;PMS7003;42611;51.132;13.588;2024-01-30T17:15:01;52.1;42.0;
56360;PMS7003;42611;51.132;13.588;2024-01-30T17:20:02;52.8;42.3;
56360;PMS7003;42611;51.132;13.588;2024-01-30T17:25:01;51.9;42.6;
56360;PMS7003;42611;51.132;13.588;2024-01-30T17:30:02;53.2;43.1;
56360;PMS7003;42611;51.132;13.588;2024-01-30T17:35:02;56.4;45.0;
56360;PMS7003;42611;51.132;13.588;2024-01-30T17:40:01;57.9;46.1;
56360;PMS7003;42611;51.132;13.588;2024-01-30T17:45:03;58.7;47.2;
56360;PMS7003;42611;51.132;13.588;2024-01-30T17:50:01;59.2;47.3;
56360;PMS7003;42611;51.132;13.588;2024-01-30T17:55:01;59.0;47.3;
56360;PMS7003;42611;51.132;13.588;2024-01-30T18:00:02;60.7;48.4;
56360;PMS7003;42611;51.132;13.588;2024-01-30T18:05:02;59.5;47.7;
56360;PMS7003;42611;51.132;13.588;2024-01-30T18:10:01;59.4;47.4;
56360;PMS7003;42611;51.132;13.588;2024-01-30T18:15:03;59.7;48.0;
56360;PMS7003;42611;51.132;13.588;2024-01-30T18:20:03;61.9;49.4;
56360;PMS7003;42611;51.132;13.588;2024-01-30T18:25:01;61.4;49.0;
56360;PMS7003;42611;51.132;13.588;2024-01-30T18:30:03;62.5;49.0;
56360;PMS7003;42611;51.132;13.588;2024-01-30T18:35:01;63.0;49.1;
56360;PMS7003;42611;51.132;13.588;2024-01-30T18:40:02;60.9;47.8;
56360;PMS7003;42611;51.132;13.588;2024-01-30T18:45:02;60.6;47.1;
56360;PMS7003;42611;51.132;13.588;2024-01-30T18:50:02;60.3;47.1;
56360;PMS7003;42611;51.132;13.588;2024-01-30T18:55:01;57.8;46.6;
56360;PMS7003;42611;51.132;13.588;2024-01-30T19:00:02;57.1;46.4;
56360;PMS7003;42611;51.132;13.588;2024-01-30T19:05:02;54.8;44.9;
56360;PMS7003;42611;51.132;13.588;2024-01-30T19:10:01;55.2;45.7;
56360;PMS7003;42611;51.132;13.588;2024-01-30T19:15:02;56.6;46.1;
56360;PMS7003;42611;51.132;13.588;2024-01-30T19:20:03;59.0;46.9;
56360;PMS7003;42611;51.132;13.588;2024-01-30T19:25:02;60.4;47.0;
56360;PMS7003;42611;51.132;13.588;2024-01-30T19:30:02;65.0;49.8;
56360;PMS7003;42611;51.132;13.588;2024-01-30T19:35:02;63.4;48.9;
56360;PMS7003;42611;51.132;13.588;2024-01-30T19:40:01;62.8;48.7;
56360;PMS7003;42611;51.132;13.588;2024-01-30T19:45:05;62.6;48.8;
56360;PMS7003;42611;51.132;13.588;2024-01-30T19:50:01;61.1;47.1;
56360;PMS7003;42611;51.132;13.588;2024-01-30T19:55:02;60.4;46.9;
56360;PMS7003;42611;51.132;13.588;2024-01-30T20:00:02;61.2;46.8;
56360;PMS7003;42611;51.132;13.588;2024-01-30T20:05:02;60.8;47.0;
56360;PMS7003;42611;51.132;13.588;2024-01-30T20:10:01;61.4;47.0;
56360;PMS7003;42611;51.132;13.588;2024-01-30T20:15:03;61.3;48.7;
56360;PMS7003;42611;51.132;13.588;2024-01-30T20:20:02;61.4;48.6;
56360;PMS7003;42611;51.132;13.588;2024-01-30T20:25:20;61.3;49.0;
56360;PMS7003;42611;51.132;13.588;2024-01-30T20:30:02;60.7;48.3;
56360;PMS7003;42611;51.132;13.588;2024-01-30T20:35:01;59.8;47.8;
56360;PMS7003;42611;51.132;13.588;2024-01-30T20:40:01;60.7;48.1;
56360;PMS7003;42611;51.132;13.588;2024-01-30T20:45:02;60.5;48.3;
56360;PMS7003;42611;51.132;13.588;2024-01-30T20:50:01;60.6;47.9;
56360;PMS7003;42611;51.132;13.588;2024-01-30T20:55:01;61.0;48.3;
56360;PMS7003;42611;51.132;13.588;2024-01-30T21:00:03;60.6;48.5;
56360;PMS7003;42611;51.132;13.588;2024-01-30T21:05:02;59.9;47.5;
56360;PMS7003;42611;51.132;13.588;2024-01-30T21:10:01;61.0;47.6;
56360;PMS7003;42611;51.132;13.588;2024-01-30T21:15:02;61.0;48.0;
56360;PMS7003;42611;51.132;13.588;2024-01-30T21:20:02;61.3;47.6;
56360;PMS7003;42611;51.132;13.588;2024-01-30T21:25:01;63.3;48.6;
56360;PMS7003;42611;51.132;13.588;2024-01-30T21:30:02;64.3;49.5;
56360;PMS7003;42611;51.132;13.588;2024-01-30T21:35:01;64.2;49.5;
56360;PMS7003;42611;51.132;13.588;2024-01-30T21:40:01;64.4;49.9;
56360;PMS7003;42611;51.132;13.588;2024-01-30T21:45:02;64.8;50.7;
56360;PMS7003;42611;51.132;13.588;2024-01-30T21:50:02;64.0;50.0;
56360;PMS7003;42611;51.132;13.588;2024-01-30T21:55:01;63.6;49.8;
56360;PMS7003;42611;51.132;13.588;2024-01-30T22:00:02;63.6;49.7;
56360;PMS7003;42611;51.132;13.588;2024-01-30T22:10:01;64.1;49.2;
56360;PMS7003;42611;51.132;13.588;2024-01-30T22:15:02;62.6;48.6;
56360;PMS7003;42611;51.132;13.588;2024-01-30T22:20:02;62.3;48.5;
56360;PMS7003;42611;51.132;13.588;2024-01-30T22:25:01;61.2;48.0;
56360;PMS7003;42611;51.132;13.588;2024-01-30T22:30:02;59.4;46.7;
56360;PMS7003;42611;51.132;13.588;2024-01-30T22:35:02;59.2;46.9;
56360;PMS7003;42611;51.132;13.588;2024-01-30T22:40:01;60.3;47.1;
56360;PMS7003;42611;51.132;13.588;2024-01-30T22:45:01;60.2;46.4;
56360;PMS7003;42611;51.132;13.588;2024-01-30T22:50:01;61.0;46.2;
56360;PMS7003;42611;51.132;13.588;2024-01-30T22:55:01;62.4;47.7;
56360;PMS7003;42611;51.132;13.588;2024-01-30T23:00:04;62.0;47.1;
56360;PMS7003;42611;51.132;13.588;2024-01-30T23:05:01;60.0;46.3;
56360;PMS7003;42611;51.132;13.588;2024-01-30T23:10:01;60.5;46.8;
56360;PMS7003;42611;51.132;13.588;2024-01-30T23:15:02;59.9;46.9;
56360;PMS7003;42611;51.132;13.588;2024-01-30T23:20:03;60.6;46.4;
56360;PMS7003;42611;51.132;13.588;2024-01-30T23:25:02;60.1;46.7;
56360;PMS7003;42611;51.132;13.588;2024-01-30T23:30:02;61.8;47.5;
56360;PMS7003;42611;51.132;13.588;2024-01-30T23:35:02;61.7;47.5;
56360;PMS7003;42611;51.132;13.588;2024-01-30T23:40:01;62.7;48.3;
56360;PMS7003;42611;51.132;13.588;2024-01-30T23:45:02;62.3;48.3;
56360;PMS7003;42611;51.132;13.588;2024-01-30T23:50:01;61.4;47.5;
56360;PMS7003;42611;51.132;13.588;2024-01-30T23:55:01;61.7;47.9;
